sensor_id;sensor_type;location;lat;lon;timestamp;temperature;humidity
26947;DHT22;14501;52.282;10.560;2023-09-08T00:01:38;15.10;99.90
26947;DHT22;14501;52.282;10.560;2023-09-08T00:04:04;15.20;99.90
26947;DHT22;14501;52.282;10.560;2023-09-08T00:06:30;15.10;99.90
26947;DHT22;14501;52.282;10.560;2023-09-08T00:08:56;15.20;99.90
26947;DHT22;14501;52.282;10.560;2023-09-08T00:11:22;15.30;99.90
26947;DHT22;14501;52.282;10.560;2023-09-08T00:13:48;15.30;99.90
26947;DHT22;14501;52.282;10.560;2023-09-08T00:16:16;15.30;99.90
26947;DHT22;14501;52.282;10.560;2023-09-08T00:18:41;15.30;99.90
26947;DHT22;14501;52.282;10.560;2023-09-08T00:21:07;15.40;99.90
26947;DHT22;14501;52.282;10.560;2023-09-08T00:23:32;15.50;99.90
26947;DHT22;14501;52.282;10.560;2023-09-08T00:25:58;15.60;99.90
26947;DHT22;14501;52.282;10.560;2023-09-08T00:28:24;15.60;99.90
26947;DHT22;14501;52.282;10.560;2023-09-08T00:30:49;15.70;99.90
26947;DHT22;14501;52.282;10.560;2023-09-08T00:33:16;15.80;99.90
26947;DHT22;14501;52.282;10.560;2023-09-08T00:35:44;15.80;99.90
26947;DHT22;14501;52.282;10.560;2023-09-08T00:38:10;15.80;99.90
26947;DHT22;14501;52.282;10.560;2023-09-08T00:40:36;15.80;99.90
26947;DHT22;14501;52.282;10.560;2023-09-08T00:43:01;15.80;99.90
26947;DHT22;14501;52.282;10.560;2023-09-08T00:45:29;15.70;99.90
26947;DHT22;14501;52.282;10.560;2023-09-08T00:47:55;15.60;99.90
26947;DHT22;14501;52.282;10.560;2023-09-08T00:50:21;15.50;99.90
26947;DHT22;14501;52.282;10.560;2023-09-08T00:52:47;15.50;99.90
26947;DHT22;14501;52.282;10.560;2023-09-08T00:55:13;15.40;99.90
26947;DHT22;14501;52.282;10.560;2023-09-08T00:57:38;15.30;99.90
26947;DHT22;14501;52.282;10.560;2023-09-08T01:00:04;15.20;99.90
26947;DHT22;14501;52.282;10.560;2023-09-08T01:02:31;15.10;99.90
26947;DHT22;14501;52.282;10.560;2023-09-08T01:04:58;15.00;99.90
26947;DHT22;14501;52.282;10.560;2023-09-08T01:07:26;14.90;99.90
26947;DHT22;14501;52.282;10.560;2023-09-08T01:09:53;14.80;99.90
26947;DHT22;14501;52.282;10.560;2023-09-08T01:12:19;14.80;99.90
26947;DHT22;14501;52.282;10.560;2023-09-08T01:14:45;14.70;99.90
26947;DHT22;14501;52.282;10.560;2023-09-08T01:17:10;14.60;99.90
26947;DHT22;14501;52.282;10.560;2023-09-08T01:19:37;14.60;99.90
26947;DHT22;14501;52.282;10.560;2023-09-08T01:22:24;14.50;99.90
26947;DHT22;14501;52.282;10.560;2023-09-08T01:27:45;14.30;99.90
26947;DHT22;14501;52.282;10.560;2023-09-08T01:30:12;14.30;99.90
26947;DHT22;14501;52.282;10.560;2023-09-08T01:32:40;14.30;99.90
26947;DHT22;14501;52.282;10.560;2023-09-08T01:35:07;14.40;99.90
26947;DHT22;14501;52.282;10.560;2023-09-08T01:37:32;14.60;99.90
26947;DHT22;14501;52.282;10.560;2023-09-08T01:39:58;14.80;99.90
26947;DHT22;14501;52.282;10.560;2023-09-08T01:42:24;14.90;99.90
26947;DHT22;14501;52.282;10.560;2023-09-08T01:44:49;14.90;99.90
26947;DHT22;14501;52.282;10.560;2023-09-08T01:47:16;14.90;99.90
26947;DHT22;14501;52.282;10.560;2023-09-08T01:49:41;14.90;99.90
26947;DHT22;14501;52.282;10.560;2023-09-08T01:52:07;14.90;99.90
26947;DHT22;14501;52.282;10.560;2023-09-08T01:54:33;14.80;99.90
26947;DHT22;14501;52.282;10.560;2023-09-08T01:56:59;14.80;99.90
26947;DHT22;14501;52.282;10.560;2023-09-08T01:59:24;14.70;99.90
26947;DHT22;14501;52.282;10.560;2023-09-08T02:01:50;14.60;99.90
26947;DHT22;14501;52.282;10.560;2023-09-08T02:04:16;14.50;99.90
26947;DHT22;14501;52.282;10.560;2023-09-08T02:06:41;14.40;99.90
26947;DHT22;14501;52.282;10.560;2023-09-08T02:09:08;14.40;99.90
26947;DHT22;14501;52.282;10.560;2023-09-08T02:11:37;14.30;99.90
26947;DHT22;14501;52.282;10.560;2023-09-08T02:14:02;14.20;99.90
26947;DHT22;14501;52.282;10.560;2023-09-08T02:16:28;14.20;99.90
26947;DHT22;14501;52.282;10.560;2023-09-08T02:18:54;14.20;99.90
26947;DHT22;14501;52.282;10.560;2023-09-08T02:21:21;14.20;99.90
26947;DHT22;14501;52.282;10.560;2023-09-08T02:23:47;14.10;99.90
26947;DHT22;14501;52.282;10.560;2023-09-08T02:26:12;14.10;99.90
26947;DHT22;14501;52.282;10.560;2023-09-08T02:28:38;14.10;99.90
26947;DHT22;14501;52.282;10.560;2023-09-08T02:31:10;14.00;99.90
26947;DHT22;14501;52.282;10.560;2023-09-08T02:33:35;14.00;99.90
26947;DHT22;14501;52.282;10.560;2023-09-08T02:36:05;13.90;99.90
26947;DHT22;14501;52.282;10.560;2023-09-08T02:38:32;13.90;99.90
26947;DHT22;14501;52.282;10.560;2023-09-08T02:40:58;13.80;99.90
26947;DHT22;14501;52.282;10.560;2023-09-08T02:43:23;13.80;99.90
26947;DHT22;14501;52.282;10.560;2023-09-08T02:45:49;13.80;99.90
26947;DHT22;14501;52.282;10.560;2023-09-08T02:48:15;13.70;99.90
26947;DHT22;14501;52.282;10.560;2023-09-08T02:50:41;13.70;99.90
26947;DHT22;14501;52.282;10.560;2023-09-08T02:53:07;13.70;99.90
26947;DHT22;14501;52.282;10.560;2023-09-08T02:55:33;13.60;99.90
26947;DHT22;14501;52.282;10.560;2023-09-08T02:57:58;13.60;99.90
26947;DHT22;14501;52.282;10.560;2023-09-08T03:00:24;13.60;99.90
26947;DHT22;14501;52.282;10.560;2023-09-08T03:02:50;13.60;99.90
26947;DHT22;14501;52.282;10.560;2023-09-08T03:05:16;13.60;99.90
26947;DHT22;14501;52.282;10.560;2023-09-08T03:07:41;13.50;99.90
26947;DHT22;14501;52.282;10.560;2023-09-08T03:10:07;13.50;99.90
26947;DHT22;14501;52.282;10.560;2023-09-08T03:12:33;13.50;99.90
26947;DHT22;14501;52.282;10.560;2023-09-08T03:15:00;13.50;99.90
26947;DHT22;14501;52.282;10.560;2023-09-08T03:17:26;13.50;99.90
26947;DHT22;14501;52.282;10.560;2023-09-08T03:19:51;13.50;99.90
26947;DHT22;14501;52.282;10.560;2023-09-08T03:22:17;13.50;99.90
26947;DHT22;14501;52.282;10.560;2023-09-08T03:24:42;13.50;99.90
26947;DHT22;14501;52.282;10.560;2023-09-08T03:27:08;13.40;99.90
26947;DHT22;14501;52.282;10.560;2023-09-08T03:29:33;13.50;99.90
26947;DHT22;14501;52.282;10.560;2023-09-08T03:31:59;13.50;99.90
26947;DHT22;14501;52.282;10.560;2023-09-08T03:34:25;13.50;99.90
26947;DHT22;14501;52.282;10.560;2023-09-08T03:36:53;13.50;99.90
26947;DHT22;14501;52.282;10.560;2023-09-08T03:39:19;13.50;99.90
26947;DHT22;14501;52.282;10.560;2023-09-08T03:41:45;13.50;99.90
26947;DHT22;14501;52.282;10.560;2023-09-08T03:44:11;13.50;99.90
26947;DHT22;14501;52.282;10.560;2023-09-08T03:46:37;13.40;99.90
26947;DHT22;14501;52.282;10.560;2023-09-08T03:49:03;13.40;99.90
26947;DHT22;14501;52.282;10.560;2023-09-08T03:51:29;13.40;99.90
26947;DHT22;14501;52.282;10.560;2023-09-08T03:53:54;13.30;99.90
26947;DHT22;14501;52.282;10.560;2023-09-08T03:56:20;13.30;99.90
26947;DHT22;14501;52.282;10.560;2023-09-08T03:58:47;13.30;99.90
26947;DHT22;14501;52.282;10.560;2023-09-08T04:01:12;13.20;99.90
26947;DHT22;14501;52.282;10.560;2023-09-08T04:03:38;13.20;99.90
26947;DHT22;14501;52.282;10.560;2023-09-08T04:06:04;13.20;99.90
26947;DHT22;14501;52.282;10.560;2023-09-08T04:08:29;13.20;99.90
26947;DHT22;14501;52.282;10.560;2023-09-08T04:10:55;13.10;99.90
26947;DHT22;14501;52.282;10.560;2023-09-08T04:13:21;13.10;99.90
26947;DHT22;14501;52.282;10.560;2023-09-08T04:15:47;13.10;99.90
26947;DHT22;14501;52.282;10.560;2023-09-08T04:18:12;13.00;99.90
26947;DHT22;14501;52.282;10.560;2023-09-08T04:20:39;13.00;99.90
26947;DHT22;14501;52.282;10.560;2023-09-08T04:23:05;13.00;99.90
26947;DHT22;14501;52.282;10.560;2023-09-08T04:25:31;13.00;99.90
26947;DHT22;14501;52.282;10.560;2023-09-08T04:27:57;13.00;99.90
26947;DHT22;14501;52.282;10.560;2023-09-08T04:30:22;13.00;99.90
26947;DHT22;14501;52.282;10.560;2023-09-08T04:32:48;13.00;99.90
26947;DHT22;14501;52.282;10.560;2023-09-08T04:35:14;13.00;99.90
26947;DHT22;14501;52.282;10.560;2023-09-08T04:37:39;13.00;99.90
26947;DHT22;14501;52.282;10.560;2023-09-08T04:40:06;13.00;99.90
26947;DHT22;14501;52.282;10.560;2023-09-08T04:42:33;13.00;99.90
26947;DHT22;14501;52.282;10.560;2023-09-08T04:44:58;13.10;99.90
26947;DHT22;14501;52.282;10.560;2023-09-08T04:47:24;13.10;99.90
26947;DHT22;14501;52.282;10.560;2023-09-08T04:49:50;13.10;99.90
26947;DHT22;14501;52.282;10.560;2023-09-08T04:52:16;13.10;99.90
26947;DHT22;14501;52.282;10.560;2023-09-08T04:54:41;13.10;99.90
26947;DHT22;14501;52.282;10.560;2023-09-08T04:57:07;13.10;99.90
26947;DHT22;14501;52.282;10.560;2023-09-08T04:59:32;13.10;99.90
26947;DHT22;14501;52.282;10.560;2023-09-08T05:01:58;13.00;99.90
26947;DHT22;14501;52.282;10.560;2023-09-08T05:04:24;13.10;99.90
26947;DHT22;14501;52.282;10.560;2023-09-08T05:06:50;13.10;99.90
26947;DHT22;14501;52.282;10.560;2023-09-08T05:09:16;13.10;99.90
26947;DHT22;14501;52.282;10.560;2023-09-08T05:11:42;13.10;99.90
26947;DHT22;14501;52.282;10.560;2023-09-08T05:14:07;13.20;99.90
26947;DHT22;14501;52.282;10.560;2023-09-08T05:16:33;13.10;99.90
26947;DHT22;14501;52.282;10.560;2023-09-08T05:19:04;13.10;99.90
26947;DHT22;14501;52.282;10.560;2023-09-08T05:21:31;13.10;99.90
26947;DHT22;14501;52.282;10.560;2023-09-08T05:23:57;13.20;99.90
26947;DHT22;14501;52.282;10.560;2023-09-08T05:26:22;13.20;99.90
26947;DHT22;14501;52.282;10.560;2023-09-08T05:28:48;13.20;99.90
26947;DHT22;14501;52.282;10.560;2023-09-08T05:31:13;13.30;99.90
26947;DHT22;14501;52.282;10.560;2023-09-08T05:33:39;13.30;99.90
26947;DHT22;14501;52.282;10.560;2023-09-08T05:36:05;13.30;99.90
26947;DHT22;14501;52.282;10.560;2023-09-08T05:38:31;13.30;99.90
26947;DHT22;14501;52.282;10.560;2023-09-08T05:40:57;13.40;99.90
26947;DHT22;14501;52.282;10.560;2023-09-08T05:43:25;13.60;99.90
26947;DHT22;14501;52.282;10.560;2023-09-08T05:45:51;13.70;99.90
26947;DHT22;14501;52.282;10.560;2023-09-08T05:48:17;13.80;99.90
26947;DHT22;14501;52.282;10.560;2023-09-08T05:50:42;14.00;99.90
26947;DHT22;14501;52.282;10.560;2023-09-08T05:53:08;13.90;99.90
26947;DHT22;14501;52.282;10.560;2023-09-08T05:55:34;14.40;99.90
26947;DHT22;14501;52.282;10.560;2023-09-08T05:58:00;14.70;99.90
26947;DHT22;14501;52.282;10.560;2023-09-08T06:00:25;14.90;99.90
26947;DHT22;14501;52.282;10.560;2023-09-08T06:02:51;15.20;99.90
26947;DHT22;14501;52.282;10.560;2023-09-08T06:05:17;15.40;99.90
26947;DHT22;14501;52.282;10.560;2023-09-08T06:07:43;15.60;99.90
26947;DHT22;14501;52.282;10.560;2023-09-08T06:10:09;15.90;99.90
26947;DHT22;14501;52.282;10.560;2023-09-08T06:12:35;16.20;99.90
26947;DHT22;14501;52.282;10.560;2023-09-08T06:15:02;16.50;99.90
26947;DHT22;14501;52.282;10.560;2023-09-08T06:17:28;16.80;99.90
26947;DHT22;14501;52.282;10.560;2023-09-08T06:19:54;16.90;99.90
26947;DHT22;14501;52.282;10.560;2023-09-08T06:22:19;17.10;99.90
26947;DHT22;14501;52.282;10.560;2023-09-08T06:24:45;17.10;99.90
26947;DHT22;14501;52.282;10.560;2023-09-08T06:27:11;17.20;99.90
26947;DHT22;14501;52.282;10.560;2023-09-08T06:29:37;17.30;99.90
26947;DHT22;14501;52.282;10.560;2023-09-08T06:32:04;17.30;99.90
26947;DHT22;14501;52.282;10.560;2023-09-08T06:34:29;17.40;99.90
26947;DHT22;14501;52.282;10.560;2023-09-08T06:36:55;17.40;99.90
26947;DHT22;14501;52.282;10.560;2023-09-08T06:39:21;17.50;99.90
26947;DHT22;14501;52.282;10.560;2023-09-08T06:41:46;17.60;99.90
26947;DHT22;14501;52.282;10.560;2023-09-08T06:44:12;17.70;99.90
26947;DHT22;14501;52.282;10.560;2023-09-08T06:46:37;17.70;99.90
26947;DHT22;14501;52.282;10.560;2023-09-08T06:49:03;17.80;99.90
26947;DHT22;14501;52.282;10.560;2023-09-08T06:51:29;18.00;99.90
26947;DHT22;14501;52.282;10.560;2023-09-08T06:53:55;18.00;99.90
26947;DHT22;14501;52.282;10.560;2023-09-08T06:56:25;18.20;99.90
26947;DHT22;14501;52.282;10.560;2023-09-08T06:58:51;18.30;99.90
26947;DHT22;14501;52.282;10.560;2023-09-08T07:01:17;18.50;99.90
26947;DHT22;14501;52.282;10.560;2023-09-08T07:03:43;18.60;99.90
26947;DHT22;14501;52.282;10.560;2023-09-08T07:06:08;18.60;99.90
26947;DHT22;14501;52.282;10.560;2023-09-08T07:08:34;18.80;99.90
26947;DHT22;14501;52.282;10.560;2023-09-08T07:11:00;18.80;99.90
26947;DHT22;14501;52.282;10.560;2023-09-08T07:13:25;19.00;99.90
26947;DHT22;14501;52.282;10.560;2023-09-08T07:15:51;19.10;99.90
26947;DHT22;14501;52.282;10.560;2023-09-08T07:18:16;19.30;99.90
26947;DHT22;14501;52.282;10.560;2023-09-08T07:20:46;19.50;99.90
26947;DHT22;14501;52.282;10.560;2023-09-08T07:23:13;19.70;99.90
26947;DHT22;14501;52.282;10.560;2023-09-08T07:25:38;19.90;99.90
26947;DHT22;14501;52.282;10.560;2023-09-08T07:28:04;20.10;99.90
26947;DHT22;14501;52.282;10.560;2023-09-08T07:30:32;20.20;99.90
26947;DHT22;14501;52.282;10.560;2023-09-08T07:32:57;20.30;99.90
26947;DHT22;14501;52.282;10.560;2023-09-08T07:35:23;20.50;99.90
26947;DHT22;14501;52.282;10.560;2023-09-08T07:37:49;20.60;99.90
26947;DHT22;14501;52.282;10.560;2023-09-08T07:40:15;20.70;99.90
26947;DHT22;14501;52.282;10.560;2023-09-08T07:42:41;20.90;99.90
26947;DHT22;14501;52.282;10.560;2023-09-08T07:45:07;21.00;99.90
26947;DHT22;14501;52.282;10.560;2023-09-08T07:47:35;21.20;99.90
26947;DHT22;14501;52.282;10.560;2023-09-08T07:52:46;21.60;99.90
26947;DHT22;14501;52.282;10.560;2023-09-08T07:55:11;21.60;99.90
26947;DHT22;14501;52.282;10.560;2023-09-08T07:57:37;21.90;99.90
26947;DHT22;14501;52.282;10.560;2023-09-08T08:00:03;22.20;99.90
26947;DHT22;14501;52.282;10.560;2023-09-08T08:02:29;22.50;99.90
26947;DHT22;14501;52.282;10.560;2023-09-08T08:04:56;22.90;99.90
26947;DHT22;14501;52.282;10.560;2023-09-08T08:07:22;24.40;99.90
26947;DHT22;14501;52.282;10.560;2023-09-08T08:09:48;27.00;99.90
26947;DHT22;14501;52.282;10.560;2023-09-08T08:12:13;30.60;99.90
26947;DHT22;14501;52.282;10.560;2023-09-08T08:14:39;33.40;99.90
26947;DHT22;14501;52.282;10.560;2023-09-08T08:17:05;35.90;97.40
26947;DHT22;14501;52.282;10.560;2023-09-08T08:19:31;38.00;91.90
26947;DHT22;14501;52.282;10.560;2023-09-08T08:21:56;40.10;84.80
26947;DHT22;14501;52.282;10.560;2023-09-08T08:24:23;41.70;77.90
26947;DHT22;14501;52.282;10.560;2023-09-08T08:26:48;43.00;74.00
26947;DHT22;14501;52.282;10.560;2023-09-08T08:29:17;44.00;69.90
26947;DHT22;14501;52.282;10.560;2023-09-08T08:31:42;44.90;65.00
26947;DHT22;14501;52.282;10.560;2023-09-08T08:34:08;46.00;62.00
26947;DHT22;14501;52.282;10.560;2023-09-08T08:36:35;45.90;62.50
26947;DHT22;14501;52.282;10.560;2023-09-08T08:39:00;46.20;60.50
26947;DHT22;14501;52.282;10.560;2023-09-08T08:41:26;46.50;59.60
26947;DHT22;14501;52.282;10.560;2023-09-08T08:43:52;46.60;57.20
26947;DHT22;14501;52.282;10.560;2023-09-08T08:46:21;46.90;56.60
26947;DHT22;14501;52.282;10.560;2023-09-08T08:48:46;46.60;56.30
26947;DHT22;14501;52.282;10.560;2023-09-08T08:51:13;47.20;54.10
26947;DHT22;14501;52.282;10.560;2023-09-08T08:53:40;46.50;55.10
26947;DHT22;14501;52.282;10.560;2023-09-08T08:56:07;46.20;53.00
26947;DHT22;14501;52.282;10.560;2023-09-08T08:58:36;45.60;52.50
26947;DHT22;14501;52.282;10.560;2023-09-08T09:01:02;45.50;53.10
26947;DHT22;14501;52.282;10.560;2023-09-08T09:03:29;45.10;52.10
26947;DHT22;14501;52.282;10.560;2023-09-08T09:05:56;44.20;54.10
26947;DHT22;14501;52.282;10.560;2023-09-08T09:08:22;45.10;53.10
26947;DHT22;14501;52.282;10.560;2023-09-08T09:10:50;45.40;51.80
26947;DHT22;14501;52.282;10.560;2023-09-08T09:13:16;44.60;52.60
26947;DHT22;14501;52.282;10.560;2023-09-08T09:15:43;44.30;52.50
26947;DHT22;14501;52.282;10.560;2023-09-08T09:18:09;44.60;53.20
26947;DHT22;14501;52.282;10.560;2023-09-08T09:20:35;44.60;52.60
26947;DHT22;14501;52.282;10.560;2023-09-08T09:23:01;43.90;53.90
26947;DHT22;14501;52.282;10.560;2023-09-08T09:25:28;44.00;54.00
26947;DHT22;14501;52.282;10.560;2023-09-08T09:27:56;44.00;52.10
26947;DHT22;14501;52.282;10.560;2023-09-08T09:30:22;43.80;51.90
26947;DHT22;14501;52.282;10.560;2023-09-08T09:32:58;43.90;53.60
26947;DHT22;14501;52.282;10.560;2023-09-08T09:36:00;45.00;51.50
26947;DHT22;14501;52.282;10.560;2023-09-08T09:38:27;45.50;51.70
26947;DHT22;14501;52.282;10.560;2023-09-08T09:40:54;45.30;51.50
26947;DHT22;14501;52.282;10.560;2023-09-08T09:43:21;45.40;50.60
26947;DHT22;14501;52.282;10.560;2023-09-08T09:45:48;45.10;49.80
26947;DHT22;14501;52.282;10.560;2023-09-08T09:48:14;44.20;51.80
26947;DHT22;14501;52.282;10.560;2023-09-08T09:50:41;44.60;52.50
26947;DHT22;14501;52.282;10.560;2023-09-08T09:53:13;43.70;51.50
26947;DHT22;14501;52.282;10.560;2023-09-08T09:55:40;43.50;52.10
26947;DHT22;14501;52.282;10.560;2023-09-08T09:58:07;43.40;52.50
26947;DHT22;14501;52.282;10.560;2023-09-08T10:00:34;43.60;52.40
26947;DHT22;14501;52.282;10.560;2023-09-08T10:03:01;43.20;53.50
26947;DHT22;14501;52.282;10.560;2023-09-08T10:05:27;42.90;51.80
26947;DHT22;14501;52.282;10.560;2023-09-08T10:07:53;43.00;54.80
26947;DHT22;14501;52.282;10.560;2023-09-08T10:10:20;43.70;52.50
26947;DHT22;14501;52.282;10.560;2023-09-08T10:12:52;43.80;52.10
26947;DHT22;14501;52.282;10.560;2023-09-08T10:15:21;43.70;52.20
26947;DHT22;14501;52.282;10.560;2023-09-08T10:17:55;43.20;52.90
26947;DHT22;14501;52.282;10.560;2023-09-08T10:20:23;42.40;53.40
26947;DHT22;14501;52.282;10.560;2023-09-08T10:22:54;41.50;53.50
26947;DHT22;14501;52.282;10.560;2023-09-08T10:25:24;39.50;56.50
26947;DHT22;14501;52.282;10.560;2023-09-08T10:27:50;37.70;58.90
26947;DHT22;14501;52.282;10.560;2023-09-08T10:30:17;36.20;61.70
26947;DHT22;14501;52.282;10.560;2023-09-08T10:32:43;35.50;62.50
26947;DHT22;14501;52.282;10.560;2023-09-08T10:35:09;34.60;65.30
26947;DHT22;14501;52.282;10.560;2023-09-08T10:37:35;34.50;65.10
26947;DHT22;14501;52.282;10.560;2023-09-08T10:40:22;33.90;66.20
26947;DHT22;14501;52.282;10.560;2023-09-08T10:42:48;33.60;65.90
26947;DHT22;14501;52.282;10.560;2023-09-08T10:45:18;33.60;68.00
26947;DHT22;14501;52.282;10.560;2023-09-08T10:50:16;33.30;66.30
26947;DHT22;14501;52.282;10.560;2023-09-08T10:52:42;32.90;68.00
26947;DHT22;14501;52.282;10.560;2023-09-08T10:55:08;32.40;68.50
26947;DHT22;14501;52.282;10.560;2023-09-08T10:57:34;32.30;69.70
26947;DHT22;14501;52.282;10.560;2023-09-08T11:00:04;32.20;72.10
26947;DHT22;14501;52.282;10.560;2023-09-08T11:02:48;32.20;70.00
26947;DHT22;14501;52.282;10.560;2023-09-08T11:05:16;32.40;71.20
26947;DHT22;14501;52.282;10.560;2023-09-08T11:07:43;32.70;70.90
26947;DHT22;14501;52.282;10.560;2023-09-08T11:10:10;32.70;68.80
26947;DHT22;14501;52.282;10.560;2023-09-08T11:12:36;32.40;70.70
26947;DHT22;14501;52.282;10.560;2023-09-08T11:15:04;32.50;69.10
26947;DHT22;14501;52.282;10.560;2023-09-08T11:17:31;32.60;68.50
26947;DHT22;14501;52.282;10.560;2023-09-08T11:19:57;32.60;67.10
26947;DHT22;14501;52.282;10.560;2023-09-08T11:22:24;32.60;69.80
26947;DHT22;14501;52.282;10.560;2023-09-08T11:24:51;32.40;67.90
26947;DHT22;14501;52.282;10.560;2023-09-08T11:27:17;32.20;68.90
26947;DHT22;14501;52.282;10.560;2023-09-08T11:29:44;32.20;68.30
26947;DHT22;14501;52.282;10.560;2023-09-08T11:32:11;31.90;68.80
26947;DHT22;14501;52.282;10.560;2023-09-08T11:34:36;31.60;70.30
26947;DHT22;14501;52.282;10.560;2023-09-08T11:37:12;31.50;69.10
26947;DHT22;14501;52.282;10.560;2023-09-08T11:39:48;31.50;69.80
26947;DHT22;14501;52.282;10.560;2023-09-08T11:42:15;31.50;69.90
26947;DHT22;14501;52.282;10.560;2023-09-08T11:44:41;31.60;70.80
26947;DHT22;14501;52.282;10.560;2023-09-08T11:47:08;31.80;69.20
26947;DHT22;14501;52.282;10.560;2023-09-08T11:49:41;31.60;68.10
26947;DHT22;14501;52.282;10.560;2023-09-08T11:52:07;31.40;69.40
26947;DHT22;14501;52.282;10.560;2023-09-08T11:54:34;31.20;70.50
26947;DHT22;14501;52.282;10.560;2023-09-08T11:57:02;31.20;70.90
26947;DHT22;14501;52.282;10.560;2023-09-08T11:59:30;31.30;71.30
26947;DHT22;14501;52.282;10.560;2023-09-08T12:01:57;31.40;70.60
26947;DHT22;14501;52.282;10.560;2023-09-08T12:04:23;31.60;69.60
26947;DHT22;14501;52.282;10.560;2023-09-08T12:06:51;31.70;68.90
26947;DHT22;14501;52.282;10.560;2023-09-08T12:09:16;31.90;70.40
26947;DHT22;14501;52.282;10.560;2023-09-08T12:11:42;32.10;68.40
26947;DHT22;14501;52.282;10.560;2023-09-08T12:14:12;32.30;67.30
26947;DHT22;14501;52.282;10.560;2023-09-08T12:16:39;32.00;67.60
26947;DHT22;14501;52.282;10.560;2023-09-08T12:19:05;31.90;68.10
26947;DHT22;14501;52.282;10.560;2023-09-08T12:21:32;31.70;68.90
26947;DHT22;14501;52.282;10.560;2023-09-08T12:23:58;31.60;69.10
26947;DHT22;14501;52.282;10.560;2023-09-08T12:26:27;31.50;69.20
26947;DHT22;14501;52.282;10.560;2023-09-08T12:28:53;31.40;68.40
26947;DHT22;14501;52.282;10.560;2023-09-08T12:31:19;31.10;67.60
26947;DHT22;14501;52.282;10.560;2023-09-08T12:33:44;31.00;68.90
26947;DHT22;14501;52.282;10.560;2023-09-08T12:36:14;31.00;68.20
26947;DHT22;14501;52.282;10.560;2023-09-08T12:38:41;30.90;66.70
26947;DHT22;14501;52.282;10.560;2023-09-08T12:41:07;30.80;66.20
26947;DHT22;14501;52.282;10.560;2023-09-08T12:43:32;30.90;66.40
26947;DHT22;14501;52.282;10.560;2023-09-08T12:45:58;30.90;69.60
26947;DHT22;14501;52.282;10.560;2023-09-08T12:48:24;31.10;70.40
26947;DHT22;14501;52.282;10.560;2023-09-08T12:50:50;31.20;68.00
26947;DHT22;14501;52.282;10.560;2023-09-08T12:53:16;31.20;68.30
26947;DHT22;14501;52.282;10.560;2023-09-08T12:55:46;31.30;67.90
26947;DHT22;14501;52.282;10.560;2023-09-08T12:58:12;31.20;66.70
26947;DHT22;14501;52.282;10.560;2023-09-08T13:00:37;31.30;66.60
26947;DHT22;14501;52.282;10.560;2023-09-08T13:03:03;31.30;68.40
26947;DHT22;14501;52.282;10.560;2023-09-08T13:05:29;31.20;68.00
26947;DHT22;14501;52.282;10.560;2023-09-08T13:07:54;31.40;69.80
26947;DHT22;14501;52.282;10.560;2023-09-08T13:10:20;31.30;69.00
26947;DHT22;14501;52.282;10.560;2023-09-08T13:12:46;31.30;68.40
26947;DHT22;14501;52.282;10.560;2023-09-08T13:15:11;31.20;67.40
26947;DHT22;14501;52.282;10.560;2023-09-08T13:17:37;31.20;68.40
26947;DHT22;14501;52.282;10.560;2023-09-08T13:20:03;31.30;69.20
26947;DHT22;14501;52.282;10.560;2023-09-08T13:22:29;31.30;66.90
26947;DHT22;14501;52.282;10.560;2023-09-08T13:24:55;31.30;66.00
26947;DHT22;14501;52.282;10.560;2023-09-08T13:27:21;31.30;67.10
26947;DHT22;14501;52.282;10.560;2023-09-08T13:29:46;31.20;67.00
26947;DHT22;14501;52.282;10.560;2023-09-08T13:32:12;31.20;67.00
26947;DHT22;14501;52.282;10.560;2023-09-08T13:34:38;31.20;68.00
26947;DHT22;14501;52.282;10.560;2023-09-08T13:37:04;31.20;67.50
26947;DHT22;14501;52.282;10.560;2023-09-08T13:39:29;31.30;67.80
26947;DHT22;14501;52.282;10.560;2023-09-08T13:41:56;31.40;70.00
26947;DHT22;14501;52.282;10.560;2023-09-08T13:44:23;31.60;68.50
26947;DHT22;14501;52.282;10.560;2023-09-08T13:46:50;31.60;68.00
26947;DHT22;14501;52.282;10.560;2023-09-08T13:49:16;31.40;68.40
26947;DHT22;14501;52.282;10.560;2023-09-08T13:51:42;31.50;67.90
26947;DHT22;14501;52.282;10.560;2023-09-08T13:54:09;31.40;67.50
26947;DHT22;14501;52.282;10.560;2023-09-08T13:56:35;31.30;68.10
26947;DHT22;14501;52.282;10.560;2023-09-08T13:59:03;31.20;68.00
26947;DHT22;14501;52.282;10.560;2023-09-08T14:01:29;31.20;70.50
26947;DHT22;14501;52.282;10.560;2023-09-08T14:03:55;31.20;68.30
26947;DHT22;14501;52.282;10.560;2023-09-08T14:06:22;31.20;68.50
26947;DHT22;14501;52.282;10.560;2023-09-08T14:08:48;31.10;68.80
26947;DHT22;14501;52.282;10.560;2023-09-08T14:11:14;31.10;68.70
26947;DHT22;14501;52.282;10.560;2023-09-08T14:13:39;31.10;70.60
26947;DHT22;14501;52.282;10.560;2023-09-08T14:16:05;31.20;70.40
26947;DHT22;14501;52.282;10.560;2023-09-08T14:18:31;31.10;68.50
26947;DHT22;14501;52.282;10.560;2023-09-08T14:20:56;31.10;69.60
26947;DHT22;14501;52.282;10.560;2023-09-08T14:23:22;31.10;69.90
26947;DHT22;14501;52.282;10.560;2023-09-08T14:25:48;31.10;70.30
26947;DHT22;14501;52.282;10.560;2023-09-08T14:28:13;31.10;69.70
26947;DHT22;14501;52.282;10.560;2023-09-08T14:30:39;31.00;70.40
26947;DHT22;14501;52.282;10.560;2023-09-08T14:33:06;30.90;70.70
26947;DHT22;14501;52.282;10.560;2023-09-08T14:35:32;30.70;70.30
26947;DHT22;14501;52.282;10.560;2023-09-08T14:37:58;30.60;68.90
26947;DHT22;14501;52.282;10.560;2023-09-08T14:40:23;30.50;70.50
26947;DHT22;14501;52.282;10.560;2023-09-08T14:42:49;30.50;70.80
26947;DHT22;14501;52.282;10.560;2023-09-08T14:45:15;30.40;71.20
26947;DHT22;14501;52.282;10.560;2023-09-08T14:47:41;30.20;70.10
26947;DHT22;14501;52.282;10.560;2023-09-08T14:50:07;30.20;70.80
26947;DHT22;14501;52.282;10.560;2023-09-08T14:52:32;30.10;71.50
26947;DHT22;14501;52.282;10.560;2023-09-08T14:54:58;30.10;71.60
26947;DHT22;14501;52.282;10.560;2023-09-08T14:57:33;30.10;71.40
26947;DHT22;14501;52.282;10.560;2023-09-08T14:59:59;30.10;71.60
26947;DHT22;14501;52.282;10.560;2023-09-08T15:02:24;30.00;74.00
26947;DHT22;14501;52.282;10.560;2023-09-08T15:04:50;30.00;75.10
26947;DHT22;14501;52.282;10.560;2023-09-08T15:07:15;29.90;74.80
26947;DHT22;14501;52.282;10.560;2023-09-08T15:09:41;29.90;75.70
26947;DHT22;14501;52.282;10.560;2023-09-08T15:12:07;29.90;76.60
26947;DHT22;14501;52.282;10.560;2023-09-08T15:14:32;29.80;76.00
26947;DHT22;14501;52.282;10.560;2023-09-08T15:16:58;29.50;76.00
26947;DHT22;14501;52.282;10.560;2023-09-08T15:19:24;29.70;76.00